sensor_id;sensor_type;location;lat;lon;timestamp;P1;durP1;ratioP1;P2;durP2;ratioP2
1775;SDS011;885;42.626;23.200;2023-08-12T00:00:54;5.80;;;4.53;;
1775;SDS011;885;42.626;23.200;2023-08-12T00:03:21;4.87;;;4.47;;
1775;SDS011;885;42.626;23.200;2023-08-12T00:05:48;5.97;;;5.03;;
1775;SDS011;885;42.626;23.200;2023-08-12T00:08:15;5.43;;;3.77;;
1775;SDS011;885;42.626;23.200;2023-08-12T00:10:41;4.70;;;4.10;;
1775;SDS011;885;42.626;23.200;2023-08-12T00:13:10;5.17;;;4.67;;
1775;SDS011;885;42.626;23.200;2023-08-12T00:15:39;4.90;;;4.40;;
1775;SDS011;885;42.626;23.200;2023-08-12T00:18:06;4.37;;;3.97;;
1775;SDS011;885;42.626;23.200;2023-08-12T00:20:34;5.40;;;4.90;;
1775;SDS011;885;42.626;23.200;2023-08-12T00:23:03;4.70;;;4.20;;
1775;SDS011;885;42.626;23.200;2023-08-12T00:25:30;4.60;;;4.00;;
1775;SDS011;885;42.626;23.200;2023-08-12T00:27:57;6.53;;;3.97;;
1775;SDS011;885;42.626;23.200;2023-08-12T00:30:25;4.43;;;4.03;;
1775;SDS011;885;42.626;23.200;2023-08-12T00:32:52;4.20;;;3.80;;
1775;SDS011;885;42.626;23.200;2023-08-12T00:35:19;4.87;;;4.43;;
1775;SDS011;885;42.626;23.200;2023-08-12T00:37:45;4.67;;;4.27;;
1775;SDS011;885;42.626;23.200;2023-08-12T00:40:12;4.57;;;4.10;;
1775;SDS011;885;42.626;23.200;2023-08-12T00:42:40;4.53;;;4.13;;
1775;SDS011;885;42.626;23.200;2023-08-12T00:45:08;5.90;;;5.30;;
1775;SDS011;885;42.626;23.200;2023-08-12T00:47:39;4.07;;;3.70;;
1775;SDS011;885;42.626;23.200;2023-08-12T00:50:06;6.17;;;5.57;;
1775;SDS011;885;42.626;23.200;2023-08-12T00:52:37;5.57;;;4.83;;
1775;SDS011;885;42.626;23.200;2023-08-12T00:55:04;4.57;;;4.00;;
1775;SDS011;885;42.626;23.200;2023-08-12T00:57:31;4.30;;;3.90;;
1775;SDS011;885;42.626;23.200;2023-08-12T00:59:58;4.83;;;4.43;;
1775;SDS011;885;42.626;23.200;2023-08-12T01:02:25;6.07;;;4.90;;
1775;SDS011;885;42.626;23.200;2023-08-12T01:04:53;5.20;;;4.70;;
1775;SDS011;885;42.626;23.200;2023-08-12T01:07:20;4.77;;;4.43;;
1775;SDS011;885;42.626;23.200;2023-08-12T01:09:47;6.63;;;4.57;;
1775;SDS011;885;42.626;23.200;2023-08-12T01:12:15;5.03;;;4.63;;
1775;SDS011;885;42.626;23.200;2023-08-12T01:14:49;4.57;;;4.17;;
1775;SDS011;885;42.626;23.200;2023-08-12T01:17:22;5.23;;;4.63;;
1775;SDS011;885;42.626;23.200;2023-08-12T01:19:49;4.50;;;4.10;;
1775;SDS011;885;42.626;23.200;2023-08-12T01:22:18;5.30;;;4.90;;
1775;SDS011;885;42.626;23.200;2023-08-12T01:24:48;5.10;;;4.60;;
1775;SDS011;885;42.626;23.200;2023-08-12T01:27:17;4.40;;;4.10;;
1775;SDS011;885;42.626;23.200;2023-08-12T01:29:45;4.87;;;4.37;;
1775;SDS011;885;42.626;23.200;2023-08-12T01:32:14;5.03;;;4.43;;
1775;SDS011;885;42.626;23.200;2023-08-12T01:34:50;4.90;;;4.50;;
1775;SDS011;885;42.626;23.200;2023-08-12T01:37:25;4.43;;;4.03;;
1775;SDS011;885;42.626;23.200;2023-08-12T01:39:56;5.53;;;5.03;;
1775;SDS011;885;42.626;23.200;2023-08-12T01:42:28;4.50;;;4.10;;
1775;SDS011;885;42.626;23.200;2023-08-12T01:44:55;4.60;;;4.17;;
1775;SDS011;885;42.626;23.200;2023-08-12T01:47:22;4.60;;;4.17;;
1775;SDS011;885;42.626;23.200;2023-08-12T01:49:49;9.27;;;4.93;;
1775;SDS011;885;42.626;23.200;2023-08-12T01:52:16;6.37;;;5.00;;
1775;SDS011;885;42.626;23.200;2023-08-12T01:54:43;5.40;;;4.90;;
1775;SDS011;885;42.626;23.200;2023-08-12T01:57:11;5.20;;;3.90;;
1775;SDS011;885;42.626;23.200;2023-08-12T01:59:38;4.20;;;3.80;;
1775;SDS011;885;42.626;23.200;2023-08-12T02:02:05;4.70;;;4.20;;
1775;SDS011;885;42.626;23.200;2023-08-12T02:04:32;4.93;;;4.27;;
1775;SDS011;885;42.626;23.200;2023-08-12T02:07:01;4.00;;;3.70;;
1775;SDS011;885;42.626;23.200;2023-08-12T02:09:28;4.90;;;4.40;;
1775;SDS011;885;42.626;23.200;2023-08-12T02:11:55;4.20;;;3.80;;
1775;SDS011;885;42.626;23.200;2023-08-12T02:14:24;5.47;;;4.63;;
1775;SDS011;885;42.626;23.200;2023-08-12T02:16:50;5.47;;;4.60;;
1775;SDS011;885;42.626;23.200;2023-08-12T02:19:17;5.43;;;5.03;;
1775;SDS011;885;42.626;23.200;2023-08-12T02:21:44;4.80;;;4.40;;
1775;SDS011;885;42.626;23.200;2023-08-12T02:24:11;5.00;;;4.50;;
1775;SDS011;885;42.626;23.200;2023-08-12T02:26:38;5.47;;;4.97;;
1775;SDS011;885;42.626;23.200;2023-08-12T02:29:04;5.10;;;4.70;;
1775;SDS011;885;42.626;23.200;2023-08-12T02:31:33;5.00;;;4.60;;
1775;SDS011;885;42.626;23.200;2023-08-12T02:33:59;4.67;;;4.10;;
1775;SDS011;885;42.626;23.200;2023-08-12T02:36:26;4.43;;;4.13;;
1775;SDS011;885;42.626;23.200;2023-08-12T02:38:53;5.50;;;3.90;;
1775;SDS011;885;42.626;23.200;2023-08-12T02:41:19;5.00;;;4.60;;
1775;SDS011;885;42.626;23.200;2023-08-12T02:43:46;5.77;;;5.07;;
1775;SDS011;885;42.626;23.200;2023-08-12T02:46:13;5.33;;;4.83;;
1775;SDS011;885;42.626;23.200;2023-08-12T02:48:42;4.33;;;4.00;;
1775;SDS011;885;42.626;23.200;2023-08-12T02:51:09;5.10;;;4.70;;
1775;SDS011;885;42.626;23.200;2023-08-12T02:53:36;5.20;;;4.70;;
1775;SDS011;885;42.626;23.200;2023-08-12T02:56:03;5.57;;;5.07;;
1775;SDS011;885;42.626;23.200;2023-08-12T02:58:29;4.87;;;4.47;;
1775;SDS011;885;42.626;23.200;2023-08-12T03:00:56;5.57;;;5.07;;
1775;SDS011;885;42.626;23.200;2023-08-12T03:03:23;4.67;;;4.10;;
1775;SDS011;885;42.626;23.200;2023-08-12T03:05:51;4.47;;;4.07;;
1775;SDS011;885;42.626;23.200;2023-08-12T03:08:18;4.90;;;4.50;;
1775;SDS011;885;42.626;23.200;2023-08-12T03:10:45;5.20;;;4.73;;
1775;SDS011;885;42.626;23.200;2023-08-12T03:13:12;4.87;;;4.43;;
1775;SDS011;885;42.626;23.200;2023-08-12T03:15:38;5.63;;;5.13;;
1775;SDS011;885;42.626;23.200;2023-08-12T03:18:07;6.70;;;4.63;;
1775;SDS011;885;42.626;23.200;2023-08-12T03:20:33;5.10;;;4.63;;
1775;SDS011;885;42.626;23.200;2023-08-12T03:23:02;5.80;;;4.87;;
1775;SDS011;885;42.626;23.200;2023-08-12T03:25:29;6.60;;;4.80;;
1775;SDS011;885;42.626;23.200;2023-08-12T03:27:55;5.33;;;4.83;;
1775;SDS011;885;42.626;23.200;2023-08-12T03:30:22;4.13;;;3.83;;
1775;SDS011;885;42.626;23.200;2023-08-12T03:32:49;5.20;;;4.80;;
1775;SDS011;885;42.626;23.200;2023-08-12T03:35:15;4.77;;;4.33;;
1775;SDS011;885;42.626;23.200;2023-08-12T03:37:42;4.93;;;4.53;;
1775;SDS011;885;42.626;23.200;2023-08-12T03:40:11;4.80;;;4.40;;
1775;SDS011;885;42.626;23.200;2023-08-12T03:42:37;4.30;;;4.00;;
1775;SDS011;885;42.626;23.200;2023-08-12T03:45:05;4.90;;;4.40;;
1775;SDS011;885;42.626;23.200;2023-08-12T03:47:32;4.83;;;4.43;;
1775;SDS011;885;42.626;23.200;2023-08-12T03:49:59;4.63;;;4.23;;
1775;SDS011;885;42.626;23.200;2023-08-12T03:52:26;5.20;;;4.73;;
1775;SDS011;885;42.626;23.200;2023-08-12T03:54:52;5.00;;;4.50;;
1775;SDS011;885;42.626;23.200;2023-08-12T03:57:20;4.70;;;4.30;;
1775;SDS011;885;42.626;23.200;2023-08-12T03:59:47;4.10;;;3.80;;
1775;SDS011;885;42.626;23.200;2023-08-12T04:02:14;6.73;;;5.00;;
1775;SDS011;885;42.626;23.200;2023-08-12T04:04:41;4.80;;;4.40;;
1775;SDS011;885;42.626;23.200;2023-08-12T04:07:09;6.00;;;5.53;;
1775;SDS011;885;42.626;23.200;2023-08-12T04:09:35;4.17;;;3.83;;
1775;SDS011;885;42.626;23.200;2023-08-12T04:12:02;4.57;;;4.23;;
1775;SDS011;885;42.626;23.200;2023-08-12T04:14:31;4.70;;;4.30;;
1775;SDS011;885;42.626;23.200;2023-08-12T04:16:57;4.60;;;4.20;;
1775;SDS011;885;42.626;23.200;2023-08-12T04:19:24;6.73;;;4.70;;
1775;SDS011;885;42.626;23.200;2023-08-12T04:21:51;4.73;;;4.33;;
1775;SDS011;885;42.626;23.200;2023-08-12T04:24:18;4.77;;;4.37;;
1775;SDS011;885;42.626;23.200;2023-08-12T04:26:44;4.63;;;4.20;;
1775;SDS011;885;42.626;23.200;2023-08-12T04:29:11;5.10;;;4.70;;
1775;SDS011;885;42.626;23.200;2023-08-12T04:31:39;4.73;;;4.33;;
1775;SDS011;885;42.626;23.200;2023-08-12T04:34:06;5.87;;;5.47;;
1775;SDS011;885;42.626;23.200;2023-08-12T04:36:33;5.00;;;4.47;;
1775;SDS011;885;42.626;23.200;2023-08-12T04:39:00;4.37;;;4.07;;
1775;SDS011;885;42.626;23.200;2023-08-12T04:41:27;4.90;;;4.53;;
1775;SDS011;885;42.626;23.200;2023-08-12T04:43:55;4.63;;;4.23;;
1775;SDS011;885;42.626;23.200;2023-08-12T04:46:22;4.93;;;4.13;;
1775;SDS011;885;42.626;23.200;2023-08-12T04:48:50;4.70;;;4.33;;
1775;SDS011;885;42.626;23.200;2023-08-12T04:51:17;5.17;;;4.63;;
1775;SDS011;885;42.626;23.200;2023-08-12T04:53:43;5.33;;;4.80;;
1775;SDS011;885;42.626;23.200;2023-08-12T04:56:10;5.87;;;5.03;;
1775;SDS011;885;42.626;23.200;2023-08-12T04:58:37;4.20;;;3.80;;
1775;SDS011;885;42.626;23.200;2023-08-12T05:01:03;5.00;;;4.60;;
1775;SDS011;885;42.626;23.200;2023-08-12T05:03:30;5.10;;;4.60;;
1775;SDS011;885;42.626;23.200;2023-08-12T05:05:58;4.67;;;4.27;;
1775;SDS011;885;42.626;23.200;2023-08-12T05:08:25;4.90;;;4.50;;
1775;SDS011;885;42.626;23.200;2023-08-12T05:10:52;4.80;;;4.40;;
1775;SDS011;885;42.626;23.200;2023-08-12T05:13:19;4.50;;;4.10;;
1775;SDS011;885;42.626;23.200;2023-08-12T05:15:46;4.40;;;4.00;;
1775;SDS011;885;42.626;23.200;2023-08-12T05:18:13;4.30;;;3.90;;
1775;SDS011;885;42.626;23.200;2023-08-12T05:20:40;4.70;;;4.30;;
1775;SDS011;885;42.626;23.200;2023-08-12T05:23:08;4.83;;;4.43;;
1775;SDS011;885;42.626;23.200;2023-08-12T05:25:35;6.10;;;4.63;;
1775;SDS011;885;42.626;23.200;2023-08-12T05:28:02;4.73;;;3.77;;
1775;SDS011;885;42.626;23.200;2023-08-12T05:30:29;4.40;;;4.00;;
1775;SDS011;885;42.626;23.200;2023-08-12T05:32:56;3.77;;;3.47;;
1775;SDS011;885;42.626;23.200;2023-08-12T05:35:23;3.97;;;3.67;;
1775;SDS011;885;42.626;23.200;2023-08-12T05:37:49;4.67;;;4.20;;
1775;SDS011;885;42.626;23.200;2023-08-12T05:40:17;3.50;;;3.20;;
1775;SDS011;885;42.626;23.200;2023-08-12T05:42:44;4.37;;;3.80;;
1775;SDS011;885;42.626;23.200;2023-08-12T05:45:11;3.93;;;3.47;;
1775;SDS011;885;42.626;23.200;2023-08-12T05:47:37;4.17;;;3.77;;
1775;SDS011;885;42.626;23.200;2023-08-12T05:50:05;4.13;;;3.73;;
1775;SDS011;885;42.626;23.200;2023-08-12T05:52:32;4.17;;;3.30;;
1775;SDS011;885;42.626;23.200;2023-08-12T05:54:59;4.33;;;3.93;;
1775;SDS011;885;42.626;23.200;2023-08-12T05:57:27;4.00;;;3.50;;
1775;SDS011;885;42.626;23.200;2023-08-12T05:59:54;3.70;;;3.10;;
1775;SDS011;885;42.626;23.200;2023-08-12T06:02:21;3.50;;;3.20;;
1775;SDS011;885;42.626;23.200;2023-08-12T06:04:48;3.73;;;3.43;;
1775;SDS011;885;42.626;23.200;2023-08-12T06:07:15;2.80;;;2.60;;
1775;SDS011;885;42.626;23.200;2023-08-12T06:09:42;3.67;;;3.33;;
1775;SDS011;885;42.626;23.200;2023-08-12T06:12:08;5.03;;;3.37;;
1775;SDS011;885;42.626;23.200;2023-08-12T06:14:37;3.73;;;3.30;;
1775;SDS011;885;42.626;23.200;2023-08-12T06:17:04;4.10;;;3.60;;
1775;SDS011;885;42.626;23.200;2023-08-12T06:19:31;3.53;;;3.23;;
1775;SDS011;885;42.626;23.200;2023-08-12T06:21:58;3.93;;;3.00;;
1775;SDS011;885;42.626;23.200;2023-08-12T06:24:25;3.13;;;2.93;;
1775;SDS011;885;42.626;23.200;2023-08-12T06:26:51;3.73;;;3.43;;
1775;SDS011;885;42.626;23.200;2023-08-12T06:29:18;4.33;;;3.20;;
1775;SDS011;885;42.626;23.200;2023-08-12T06:31:46;4.23;;;3.10;;
1775;SDS011;885;42.626;23.200;2023-08-12T06:34:13;3.93;;;3.23;;
1775;SDS011;885;42.626;23.200;2023-08-12T06:36:40;2.90;;;2.60;;
1775;SDS011;885;42.626;23.200;2023-08-12T06:39:06;3.80;;;3.40;;
1775;SDS011;885;42.626;23.200;2023-08-12T06:41:33;3.63;;;3.33;;
1775;SDS011;885;42.626;23.200;2023-08-12T06:44:00;4.10;;;3.70;;
1775;SDS011;885;42.626;23.200;2023-08-12T06:46:28;3.60;;;3.30;;
1775;SDS011;885;42.626;23.200;2023-08-12T06:48:58;4.63;;;3.47;;
1775;SDS011;885;42.626;23.200;2023-08-12T06:51:25;3.60;;;3.23;;
1775;SDS011;885;42.626;23.200;2023-08-12T06:53:51;5.33;;;3.17;;
1775;SDS011;885;42.626;23.200;2023-08-12T06:56:18;3.53;;;3.23;;
1775;SDS011;885;42.626;23.200;2023-08-12T06:58:45;3.90;;;3.60;;
1775;SDS011;885;42.626;23.200;2023-08-12T07:01:12;4.63;;;3.47;;
1775;SDS011;885;42.626;23.200;2023-08-12T07:03:38;3.50;;;3.20;;
1775;SDS011;885;42.626;23.200;2023-08-12T07:06:07;4.27;;;3.13;;
1775;SDS011;885;42.626;23.200;2023-08-12T07:08:33;3.63;;;3.33;;
1775;SDS011;885;42.626;23.200;2023-08-12T07:11:00;3.23;;;2.93;;
1775;SDS011;885;42.626;23.200;2023-08-12T07:13:27;3.13;;;2.93;;
1775;SDS011;885;42.626;23.200;2023-08-12T07:15:54;4.90;;;3.03;;
1775;SDS011;885;42.626;23.200;2023-08-12T07:18:20;4.10;;;3.53;;
1775;SDS011;885;42.626;23.200;2023-08-12T07:20:48;4.77;;;3.70;;
1775;SDS011;885;42.626;23.200;2023-08-12T07:23:16;4.03;;;3.73;;
1775;SDS011;885;42.626;23.200;2023-08-12T07:25:43;3.20;;;2.83;;
1775;SDS011;885;42.626;23.200;2023-08-12T07:28:12;3.37;;;3.10;;
1775;SDS011;885;42.626;23.200;2023-08-12T07:30:38;2.97;;;2.77;;
1775;SDS011;885;42.626;23.200;2023-08-12T07:33:05;3.10;;;2.80;;
1775;SDS011;885;42.626;23.200;2023-08-12T07:35:32;3.70;;;3.33;;
1775;SDS011;885;42.626;23.200;2023-08-12T07:37:59;4.10;;;3.50;;
1775;SDS011;885;42.626;23.200;2023-08-12T07:40:27;5.50;;;3.23;;
1775;SDS011;885;42.626;23.200;2023-08-12T07:42:54;3.57;;;3.30;;
1775;SDS011;885;42.626;23.200;2023-08-12T07:45:21;3.80;;;3.50;;
1775;SDS011;885;42.626;23.200;2023-08-12T07:47:48;4.67;;;3.70;;
1775;SDS011;885;42.626;23.200;2023-08-12T07:50:15;3.80;;;3.30;;
1775;SDS011;885;42.626;23.200;2023-08-12T07:52:42;3.30;;;2.90;;
1775;SDS011;885;42.626;23.200;2023-08-12T07:55:09;3.17;;;2.90;;
1775;SDS011;885;42.626;23.200;2023-08-12T07:57:38;3.70;;;3.00;;
1775;SDS011;885;42.626;23.200;2023-08-12T08:00:05;4.83;;;3.70;;
1775;SDS011;885;42.626;23.200;2023-08-12T08:02:35;5.10;;;3.97;;
1775;SDS011;885;42.626;23.200;2023-08-12T08:05:01;4.03;;;3.67;;
1775;SDS011;885;42.626;23.200;2023-08-12T08:07:28;5.97;;;3.80;;
1775;SDS011;885;42.626;23.200;2023-08-12T08:09:56;4.47;;;4.07;;
1775;SDS011;885;42.626;23.200;2023-08-12T08:12:22;3.90;;;3.50;;
1775;SDS011;885;42.626;23.200;2023-08-12T08:14:51;4.60;;;3.50;;
1775;SDS011;885;42.626;23.200;2023-08-12T08:17:17;4.93;;;3.43;;
1775;SDS011;885;42.626;23.200;2023-08-12T08:19:44;3.67;;;3.37;;
1775;SDS011;885;42.626;23.200;2023-08-12T08:22:11;4.07;;;3.20;;
1775;SDS011;885;42.626;23.200;2023-08-12T08:24:38;4.17;;;3.80;;
1775;SDS011;885;42.626;23.200;2023-08-12T08:27:04;4.03;;;3.73;;
1775;SDS011;885;42.626;23.200;2023-08-12T08:29:32;3.57;;;3.20;;
1775;SDS011;885;42.626;23.200;2023-08-12T08:32:00;4.40;;;3.20;;
1775;SDS011;885;42.626;23.200;2023-08-12T08:34:27;5.20;;;3.50;;
1775;SDS011;885;42.626;23.200;2023-08-12T08:36:54;3.40;;;3.10;;
1775;SDS011;885;42.626;23.200;2023-08-12T08:39:20;2.90;;;2.67;;
1775;SDS011;885;42.626;23.200;2023-08-12T08:41:47;3.20;;;3.00;;
1775;SDS011;885;42.626;23.200;2023-08-12T08:44:15;3.93;;;3.50;;
1775;SDS011;885;42.626;23.200;2023-08-12T08:46:43;3.87;;;3.57;;
1775;SDS011;885;42.626;23.200;2023-08-12T08:49:13;3.10;;;2.80;;
1775;SDS011;885;42.626;23.200;2023-08-12T08:51:41;3.70;;;3.40;;
1775;SDS011;885;42.626;23.200;2023-08-12T08:54:09;5.23;;;2.83;;
1775;SDS011;885;42.626;23.200;2023-08-12T08:56:37;4.10;;;3.70;;
1775;SDS011;885;42.626;23.200;2023-08-12T08:59:04;3.47;;;3.17;;
1775;SDS011;885;42.626;23.200;2023-08-12T09:01:31;9.47;;;3.67;;
1775;SDS011;885;42.626;23.200;2023-08-12T09:03:58;3.30;;;3.00;;
1775;SDS011;885;42.626;23.200;2023-08-12T09:06:28;3.57;;;3.10;;
1775;SDS011;885;42.626;23.200;2023-08-12T09:08:55;4.33;;;3.40;;
1775;SDS011;885;42.626;23.200;2023-08-12T09:11:22;5.10;;;3.50;;
1775;SDS011;885;42.626;23.200;2023-08-12T09:13:50;4.10;;;3.60;;
1775;SDS011;885;42.626;23.200;2023-08-12T09:16:16;3.60;;;3.30;;
1775;SDS011;885;42.626;23.200;2023-08-12T09:18:43;4.00;;;3.70;;
1775;SDS011;885;42.626;23.200;2023-08-12T09:21:10;6.23;;;3.87;;
1775;SDS011;885;42.626;23.200;2023-08-12T09:23:39;3.57;;;3.23;;
1775;SDS011;885;42.626;23.200;2023-08-12T09:26:15;5.63;;;3.83;;
1775;SDS011;885;42.626;23.200;2023-08-12T09:28:43;4.17;;;3.77;;
1775;SDS011;885;42.626;23.200;2023-08-12T09:31:12;4.47;;;3.60;;
1775;SDS011;885;42.626;23.200;2023-08-12T09:33:48;4.23;;;3.30;;
1775;SDS011;885;42.626;23.200;2023-08-12T09:36:15;3.97;;;3.40;;
1775;SDS011;885;42.626;23.200;2023-08-12T09:38:43;3.77;;;3.40;;
1775;SDS011;885;42.626;23.200;2023-08-12T09:41:11;3.50;;;3.20;;
1775;SDS011;885;42.626;23.200;2023-08-12T09:43:39;3.57;;;3.17;;
1775;SDS011;885;42.626;23.200;2023-08-12T09:46:08;3.40;;;3.10;;
1775;SDS011;885;42.626;23.200;2023-08-12T09:48:37;3.37;;;3.07;;
1775;SDS011;885;42.626;23.200;2023-08-12T09:51:04;3.70;;;3.40;;
1775;SDS011;885;42.626;23.200;2023-08-12T09:53:32;3.93;;;3.53;;
1775;SDS011;885;42.626;23.200;2023-08-12T09:56:02;3.77;;;3.27;;
1775;SDS011;885;42.626;23.200;2023-08-12T09:58:33;3.37;;;3.10;;
1775;SDS011;885;42.626;23.200;2023-08-12T10:01:02;4.20;;;3.63;;
1775;SDS011;885;42.626;23.200;2023-08-12T10:03:29;3.43;;;3.13;;
1775;SDS011;885;42.626;23.200;2023-08-12T10:05:58;3.57;;;3.20;;
1775;SDS011;885;42.626;23.200;2023-08-12T10:08:26;3.60;;;3.30;;
1775;SDS011;885;42.626;23.200;2023-08-12T10:10:54;3.20;;;2.90;;
1775;SDS011;885;42.626;23.200;2023-08-12T10:13:23;4.50;;;3.93;;
1775;SDS011;885;42.626;23.200;2023-08-12T10:15:50;4.10;;;3.80;;
1775;SDS011;885;42.626;23.200;2023-08-12T10:18:18;3.67;;;3.33;;
1775;SDS011;885;42.626;23.200;2023-08-12T10:20:46;2.90;;;2.60;;
1775;SDS011;885;42.626;23.200;2023-08-12T10:23:14;4.10;;;3.07;;
1775;SDS011;885;42.626;23.200;2023-08-12T10:25:43;2.73;;;2.53;;
1775;SDS011;885;42.626;23.200;2023-08-12T10:28:11;3.30;;;3.00;;
1775;SDS011;885;42.626;23.200;2023-08-12T10:30:40;3.17;;;2.90;;
1775;SDS011;885;42.626;23.200;2023-08-12T10:33:08;4.07;;;3.67;;
1775;SDS011;885;42.626;23.200;2023-08-12T10:35:45;3.47;;;2.97;;
1775;SDS011;885;42.626;23.200;2023-08-12T10:38:14;3.47;;;3.03;;
1775;SDS011;885;42.626;23.200;2023-08-12T10:40:43;4.10;;;3.70;;
1775;SDS011;885;42.626;23.200;2023-08-12T10:43:11;3.60;;;3.20;;
1775;SDS011;885;42.626;23.200;2023-08-12T10:45:43;3.03;;;2.83;;
1775;SDS011;885;42.626;23.200;2023-08-12T10:48:16;3.93;;;2.93;;
1775;SDS011;885;42.626;23.200;2023-08-12T10:50:46;3.50;;;2.90;;
1775;SDS011;885;42.626;23.200;2023-08-12T10:53:24;4.00;;;2.90;;
1775;SDS011;885;42.626;23.200;2023-08-12T10:55:55;4.30;;;2.77;;
1775;SDS011;885;42.626;23.200;2023-08-12T10:58:26;3.70;;;3.33;;
1775;SDS011;885;42.626;23.200;2023-08-12T11:00:56;3.80;;;3.33;;
1775;SDS011;885;42.626;23.200;2023-08-12T11:03:23;4.07;;;2.50;;
1775;SDS011;885;42.626;23.200;2023-08-12T11:05:50;3.87;;;3.40;;
1775;SDS011;885;42.626;23.200;2023-08-12T11:08:23;3.33;;;3.03;;
1775;SDS011;885;42.626;23.200;2023-08-12T11:10:54;3.30;;;2.70;;
1775;SDS011;885;42.626;23.200;2023-08-12T11:13:22;2.97;;;2.77;;
1775;SDS011;885;42.626;23.200;2023-08-12T11:15:49;3.40;;;3.10;;
1775;SDS011;885;42.626;23.200;2023-08-12T11:18:18;3.93;;;2.77;;
1775;SDS011;885;42.626;23.200;2023-08-12T11:20:47;3.30;;;3.00;;
1775;SDS011;885;42.626;23.200;2023-08-12T11:23:16;3.93;;;3.63;;
1775;SDS011;885;42.626;23.200;2023-08-12T11:25:45;3.43;;;3.13;;
1775;SDS011;885;42.626;23.200;2023-08-12T11:28:15;3.27;;;2.97;;
1775;SDS011;885;42.626;23.200;2023-08-12T11:30:44;3.07;;;2.77;;
1775;SDS011;885;42.626;23.200;2023-08-12T11:33:11;3.10;;;2.80;;
1775;SDS011;885;42.626;23.200;2023-08-12T11:35:45;3.27;;;2.73;;
1775;SDS011;885;42.626;23.200;2023-08-12T11:38:12;2.17;;;1.90;;
1775;SDS011;885;42.626;23.200;2023-08-12T11:40:39;4.93;;;2.43;;
1775;SDS011;885;42.626;23.200;2023-08-12T11:43:06;2.93;;;2.73;;
1775;SDS011;885;42.626;23.200;2023-08-12T11:45:33;3.27;;;2.80;;
1775;SDS011;885;42.626;23.200;2023-08-12T11:47:59;2.67;;;2.47;;
1775;SDS011;885;42.626;23.200;2023-08-12T11:50:26;3.10;;;2.80;;
1775;SDS011;885;42.626;23.200;2023-08-12T11:52:55;3.10;;;2.80;;
1775;SDS011;885;42.626;23.200;2023-08-12T11:55:23;4.03;;;2.60;;
1775;SDS011;885;42.626;23.200;2023-08-12T11:57:51;3.53;;;2.60;;
1775;SDS011;885;42.626;23.200;2023-08-12T12:00:18;2.77;;;2.57;;
1775;SDS011;885;42.626;23.200;2023-08-12T12:02:48;3.20;;;2.70;;
1775;SDS011;885;42.626;23.200;2023-08-12T12:05:16;3.87;;;2.83;;
1775;SDS011;885;42.626;23.200;2023-08-12T12:07:44;2.90;;;2.70;;
1775;SDS011;885;42.626;23.200;2023-08-12T12:10:14;2.77;;;2.20;;
1775;SDS011;885;42.626;23.200;2023-08-12T12:12:45;2.47;;;2.27;;
1775;SDS011;885;42.626;23.200;2023-08-12T12:15:12;2.37;;;2.17;;
1775;SDS011;885;42.626;23.200;2023-08-12T12:17:41;2.73;;;2.30;;
1775;SDS011;885;42.626;23.200;2023-08-12T12:20:08;2.50;;;2.30;;
1775;SDS011;885;42.626;23.200;2023-08-12T12:22:37;2.40;;;2.20;;
1775;SDS011;885;42.626;23.200;2023-08-12T12:25:08;2.93;;;2.30;;
1775;SDS011;885;42.626;23.200;2023-08-12T12:27:38;2.50;;;2.30;;
1775;SDS011;885;42.626;23.200;2023-08-12T12:30:07;2.27;;;2.07;;
1775;SDS011;885;42.626;23.200;2023-08-12T12:32:34;3.37;;;2.53;;
1775;SDS011;885;42.626;23.200;2023-08-12T12:35:01;2.17;;;1.97;;
1775;SDS011;885;42.626;23.200;2023-08-12T12:37:29;2.27;;;2.07;;
1775;SDS011;885;42.626;23.200;2023-08-12T12:39:56;3.93;;;2.53;;
1775;SDS011;885;42.626;23.200;2023-08-12T12:42:22;5.77;;;2.23;;
1775;SDS011;885;42.626;23.200;2023-08-12T12:44:51;2.40;;;2.20;;
1775;SDS011;885;42.626;23.200;2023-08-12T12:47:17;3.20;;;2.93;;
1775;SDS011;885;42.626;23.200;2023-08-12T12:49:45;2.90;;;2.30;;
1775;SDS011;885;42.626;23.200;2023-08-12T12:52:12;3.47;;;2.90;;
1775;SDS011;885;42.626;23.200;2023-08-12T12:54:39;3.80;;;2.87;;
1775;SDS011;885;42.626;23.200;2023-08-12T12:57:05;3.10;;;2.80;;
1775;SDS011;885;42.626;23.200;2023-08-12T12:59:32;2.97;;;2.73;;
1775;SDS011;885;42.626;23.200;2023-08-12T13:02:00;2.40;;;2.20;;
1775;SDS011;885;42.626;23.200;2023-08-12T13:04:27;2.77;;;2.37;;
1775;SDS011;885;42.626;23.200;2023-08-12T13:06:54;3.20;;;2.53;;
1775;SDS011;885;42.626;23.200;2023-08-12T13:09:21;3.97;;;2.63;;
1775;SDS011;885;42.626;23.200;2023-08-12T13:11:48;2.80;;;2.60;;
1775;SDS011;885;42.626;23.200;2023-08-12T13:14:15;3.40;;;2.43;;
1775;SDS011;885;42.626;23.200;2023-08-12T13:16:46;3.40;;;2.83;;
1775;SDS011;885;42.626;23.200;2023-08-12T13:19:14;2.70;;;2.50;;
1775;SDS011;885;42.626;23.200;2023-08-12T13:21:41;3.37;;;3.07;;
1775;SDS011;885;42.626;23.200;2023-08-12T13:24:07;2.90;;;2.60;;
1775;SDS011;885;42.626;23.200;2023-08-12T13:26:34;2.87;;;2.57;;
1775;SDS011;885;42.626;23.200;2023-08-12T13:29:01;3.03;;;2.83;;
1775;SDS011;885;42.626;23.200;2023-08-12T13:31:28;3.00;;;2.70;;
1775;SDS011;885;42.626;23.200;2023-08-12T13:33:55;2.70;;;2.50;;
1775;SDS011;885;42.626;23.200;2023-08-12T13:36:23;3.60;;;2.87;;
1775;SDS011;885;42.626;23.200;2023-08-12T13:38:50;3.00;;;2.50;;
1775;SDS011;885;42.626;23.200;2023-08-12T13:41:17;3.80;;;3.37;;
1775;SDS011;885;42.626;23.200;2023-08-12T13:43:44;3.03;;;2.83;;
1775;SDS011;885;42.626;23.200;2023-08-12T13:46:10;3.03;;;2.83;;
1775;SDS011;885;42.626;23.200;2023-08-12T13:48:38;3.00;;;2.70;;
1775;SDS011;885;42.626;23.200;2023-08-12T13:51:04;6.73;;;3.20;;
1775;SDS011;885;42.626;23.200;2023-08-12T13:53:32;2.90;;;2.70;;
1775;SDS011;885;42.626;23.200;2023-08-12T13:55:59;2.63;;;2.43;;
1775;SDS011;885;42.626;23.200;2023-08-12T13:58:26;4.10;;;3.10;;
1775;SDS011;885;42.626;23.200;2023-08-12T14:00:53;3.20;;;2.50;;
1775;SDS011;885;42.626;23.200;2023-08-12T14:03:19;2.90;;;2.67;;
1775;SDS011;885;42.626;23.200;2023-08-12T14:05:46;2.37;;;2.17;;
1775;SDS011;885;42.626;23.200;2023-08-12T14:08:13;2.53;;;2.33;;
1775;SDS011;885;42.626;23.200;2023-08-12T14:10:41;2.90;;;2.70;;
1775;SDS011;885;42.626;23.200;2023-08-12T14:13:08;3.10;;;2.90;;
1775;SDS011;885;42.626;23.200;2023-08-12T14:15:35;3.20;;;2.63;;
1775;SDS011;885;42.626;23.200;2023-08-12T14:18:02;3.10;;;2.80;;
1775;SDS011;885;42.626;23.200;2023-08-12T14:20:28;3.03;;;2.83;;
1775;SDS011;885;42.626;23.200;2023-08-12T14:22:55;4.50;;;2.80;;
1775;SDS011;885;42.626;23.200;2023-08-12T14:25:22;3.60;;;2.60;;
1775;SDS011;885;42.626;23.200;2023-08-12T14:27:50;3.30;;;2.77;;
1775;SDS011;885;42.626;23.200;2023-08-12T14:30:17;4.50;;;2.60;;
1775;SDS011;885;42.626;23.200;2023-08-12T14:32:44;3.90;;;2.93;;
1775;SDS011;885;42.626;23.200;2023-08-12T14:35:11;4.17;;;2.87;;
1775;SDS011;885;42.626;23.200;2023-08-12T14:37:38;2.70;;;2.50;;
1775;SDS011;885;42.626;23.200;2023-08-12T14:40:05;2.53;;;2.33;;
1775;SDS011;885;42.626;23.200;2023-08-12T14:42:33;3.00;;;2.80;;
1775;SDS011;885;42.626;23.200;2023-08-12T14:45:02;2.80;;;2.50;;
1775;SDS011;885;42.626;23.200;2023-08-12T14:47:29;3.00;;;2.70;;
1775;SDS011;885;42.626;23.200;2023-08-12T14:49:56;2.63;;;2.43;;
1775;SDS011;885;42.626;23.200;2023-08-12T14:52:23;2.50;;;2.30;;
1775;SDS011;885;42.626;23.200;2023-08-12T14:54:50;2.53;;;2.33;;
1775;SDS011;885;42.626;23.200;2023-08-12T14:57:17;3.57;;;2.90;;
1775;SDS011;885;42.626;23.200;2023-08-12T14:59:43;4.40;;;2.70;;
1775;SDS011;885;42.626;23.200;2023-08-12T15:02:16;2.50;;;2.30;;
1775;SDS011;885;42.626;23.200;2023-08-12T15:04:43;3.77;;;2.50;;
1775;SDS011;885;42.626;23.200;2023-08-12T15:07:11;4.47;;;2.80;;
1775;SDS011;885;42.626;23.200;2023-08-12T15:09:39;3.00;;;2.80;;
1775;SDS011;885;42.626;23.200;2023-08-12T15:12:06;2.37;;;2.17;;
1775;SDS011;885;42.626;23.200;2023-08-12T15:14:32;2.60;;;2.40;;
1775;SDS011;885;42.626;23.200;2023-08-12T15:16:59;2.70;;;2.43;;